Time;durP1;ratioP1;P1;durP2;ratioP2;P2;SDS_P1;SDS_P2;PMS_P1;PMS_P2;Temp;Humidity;BMP_temperature;BMP_pressure;BME280_temperature;BME280_humidity;BME280_pressure;Samples;Min_cycle;Max_cycle;Signal;HPM_P1;HPM_P2
2021/09/26 00:00:42;;;;;;;16.15;9.77;;;;;;;16.64;83.41;101310.34;5105306;28;20490;-55
2021/09/26 00:03:10;;;;;;;15.15;9.93;;;;;;;16.60;83.58;101307.41;5107264;28;20067;-55
2021/09/26 00:05:38;;;;;;;17.80;10.02;;;;;;;16.61;83.45;101308.22;5102099;28;20052;-53
2021/09/26 00:08:06;;;;;;;14.68;9.35;;;;;;;16.64;83.37;101306.78;5114919;28;20236;-54
2021/09/26 00:10:33;;;;;;;13.15;8.65;;;;;;;16.64;83.25;101309.53;5112337;28;20537;-52
2021/09/26 00:13:01;;;;;;;17.58;10.07;;;;;;;16.65;83.34;101314.75;5112850;28;20483;-53
2021/09/26 00:15:29;;;;;;;14.82;10.10;;;;;;;16.67;83.59;101322.69;5114486;28;20410;-51
2021/09/26 00:17:57;;;;;;;16.00;10.15;;;;;;;16.69;83.33;101303.97;5114137;28;20545;-54
2021/09/26 00:20:25;;;;;;;13.40;8.38;;;;;;;16.72;83.12;101301.44;5109444;28;20036;-52
2021/09/26 00:22:53;;;;;;;16.15;10.02;;;;;;;16.75;83.02;101306.34;5112217;28;20077;-55
2021/09/26 00:25:21;;;;;;;14.68;9.52;;;;;;;16.74;82.63;101306.63;5112270;28;20093;-53
2021/09/26 00:27:49;;;;;;;12.68;8.65;;;;;;;16.75;82.62;101305.53;5114101;28;20050;-56
2021/09/26 00:30:17;;;;;;;16.60;10.85;;;;;;;16.69;82.42;101295.72;5114105;28;20101;-52
2021/09/26 00:32:46;;;;;;;14.48;9.95;;;;;;;16.64;82.62;101295.78;5106480;28;20031;-50
2021/09/26 00:35:16;;;;;;;14.07;10.15;;;;;;;16.54;82.85;101294.81;5112209;28;20062;-52
2021/09/26 00:37:43;;;;;;;16.90;10.85;;;;;;;16.45;83.17;101293.88;5105607;28;20096;-55
2021/09/26 00:40:11;;;;;;;13.20;8.75;;;;;;;16.37;83.43;101294.50;5113688;28;20074;-54
2021/09/26 00:42:39;;;;;;;12.48;8.98;;;;;;;16.34;83.84;101289.59;5109771;28;20047;-52
2021/09/26 00:45:07;;;;;;;13.52;9.02;;;;;;;16.33;83.98;101290.72;5111815;28;20520;-54
2021/09/26 00:47:35;;;;;;;15.73;8.52;;;;;;;16.37;84.00;101294.50;5112725;28;20380;-52
2021/09/26 00:50:02;;;;;;;12.20;8.20;;;;;;;16.39;83.73;101295.03;5113189;28;20039;-54
2021/09/26 00:52:30;;;;;;;19.55;10.48;;;;;;;16.38;83.25;101291.47;5096331;28;20043;-54
2021/09/26 00:54:58;;;;;;;15.40;9.63;;;;;;;16.35;83.15;101293.97;5111012;28;20039;-53
2021/09/26 00:57:25;;;;;;;17.13;10.05;;;;;;;16.32;83.64;101289.91;5111975;28;20036;-54
2021/09/26 00:59:55;;;;;;;13.45;8.55;;;;;;;16.32;83.51;101284.41;5113350;28;20040;-55
2021/09/26 01:02:23;;;;;;;14.05;8.65;;;;;;;16.38;83.80;101298.91;5112195;28;20497;-51
2021/09/26 01:04:51;;;;;;;16.50;11.27;;;;;;;16.39;83.18;101284.03;5111347;28;20039;-55
2021/09/26 01:07:31;;;;;;;13.65;9.43;;;;;;;16.37;83.19;101289.00;5110701;28;20097;-51
2021/09/26 01:10:10;;;;;;;19.00;10.30;;;;;;;16.37;83.55;101287.06;5112894;28;20051;-50
2021/09/26 01:13:01;;;;;;;16.45;9.35;;;;;;;16.39;83.38;101292.28;5112160;28;20555;-53
2021/09/26 01:16:01;;;;;;;15.65;10.10;;;;;;;16.38;83.05;101290.66;5099265;28;20084;-54
2021/09/26 01:18:50;;;;;;;18.20;10.55;;;;;;;16.28;82.99;101285.28;5110177;28;20043;-53
2021/09/26 01:21:36;;;;;;;15.20;9.27;;;;;;;16.21;83.26;101293.91;5113071;28;20658;-55
2021/09/26 01:24:07;;;;;;;16.60;10.55;;;;;;;16.19;83.68;101280.44;5099190;28;20413;-54
2021/09/26 01:26:40;;;;;;;17.23;10.25;;;;;;;16.12;83.78;101276.44;5112858;28;20562;-52
2021/09/26 01:29:13;;;;;;;16.33;10.18;;;;;;;16.09;83.85;101279.75;5111264;28;20066;-52
2021/09/26 01:31:45;;;;;;;14.13;9.45;;;;;;;16.09;83.90;101280.59;5113199;28;20451;-49
2021/09/26 01:34:26;;;;;;;16.70;9.23;;;;;;;16.13;84.01;101281.63;5111521;28;20049;-50
2021/09/26 01:37:26;;;;;;;14.95;8.77;;;;;;;16.15;84.12;101271.13;5107120;28;20039;-52
2021/09/26 01:40:04;;;;;;;12.90;8.35;;;;;;;16.19;84.11;101274.94;5109500;28;20043;-56
2021/09/26 01:42:48;;;;;;;15.85;9.85;;;;;;;16.24;83.50;101284.25;5111524;28;20486;-54
2021/09/26 01:45:54;;;;;;;14.20;8.80;;;;;;;16.24;83.68;101271.31;5108248;28;20044;-53
2021/09/26 01:48:42;;;;;;;18.40;10.02;;;;;;;16.22;83.04;101272.72;5049928;28;20498;-56
2021/09/26 01:51:10;;;;;;;15.60;10.52;;;;;;;16.15;83.18;101271.13;5038637;28;20040;-51
2021/09/26 01:53:43;;;;;;;16.30;9.45;;;;;;;16.09;83.37;101274.25;5033104;28;20052;-54
2021/09/26 01:56:15;;;;;;;17.42;9.13;;;;;;;16.01;84.15;101267.47;5016194;28;20056;-55
2021/09/26 01:58:45;;;;;;;16.02;9.73;;;;;;;15.96;84.00;101264.78;5042715;28;20045;-54
2021/09/26 02:01:14;;;;;;;12.02;7.18;;;;;;;15.94;84.63;101258.75;5031799;28;20044;-52
2021/09/26 02:03:43;;;;;;;13.77;8.82;;;;;;;15.98;84.35;101268.88;5033434;28;20052;-54
2021/09/26 02:06:11;;;;;;;15.27;9.63;;;;;;;16.02;83.79;101260.88;5032286;28;20049;-52
2021/09/26 02:08:42;;;;;;;14.50;9.20;;;;;;;15.98;83.84;101263.38;5032813;28;20045;-50
2021/09/26 02:11:12;;;;;;;14.13;9.60;;;;;;;15.93;83.99;101254.38;5031647;28;20058;-56
2021/09/26 02:13:42;;;;;;;17.42;9.95;;;;;;;15.89;84.26;101253.34;5049472;28;20049;-54
2021/09/26 02:16:10;;;;;;;13.52;8.75;;;;;;;15.88;84.54;101258.00;5032500;28;20057;-55
2021/09/26 02:18:39;;;;;;;16.17;9.82;;;;;;;15.93;84.40;101259.88;5032483;28;20049;-55
2021/09/26 02:21:07;;;;;;;13.70;9.10;;;;;;;15.94;84.30;101250.50;5032372;28;20049;-53
2021/09/26 02:23:35;;;;;;;14.88;9.00;;;;;;;15.96;84.33;101248.31;5033061;28;20048;-51
2021/09/26 02:26:04;;;;;;;13.20;8.73;;;;;;;15.98;83.82;101246.06;5103777;28;20456;-51
2021/09/26 02:28:32;;;;;;;14.27;8.50;;;;;;;15.97;83.74;101248.00;5108420;28;20032;-54
2021/09/26 02:31:06;;;;;;;16.20;9.02;;;;;;;15.96;84.03;101251.03;5110277;28;20044;-53
2021/09/26 02:33:35;;;;;;;12.88;8.02;;;;;;;15.98;83.67;101255.13;5111838;28;20043;-54
2021/09/26 02:36:04;;;;;;;12.60;7.97;;;;;;;15.97;83.69;101250.75;5112006;28;20044;-55
2021/09/26 02:38:32;;;;;;;15.13;9.45;;;;;;;16.01;83.80;101256.47;5108717;28;20035;-55
2021/09/26 02:41:12;;;;;;;12.77;7.97;;;;;;;16.03;83.73;101254.25;5102948;28;20044;-54
2021/09/26 02:44:01;;;;;;;15.27;8.85;;;;;;;16.07;83.33;101254.50;5110670;28;20050;-52
2021/09/26 02:46:37;;;;;;;19.85;8.77;;;;;;;16.07;82.77;101258.06;5112155;28;20052;-51
2021/09/26 02:49:05;;;;;;;;;;;;;;;16.02;83.23;101258.13;5101414;28;20044;-52
2021/09/26 02:51:34;;;;;;;15.98;8.95;;;;;;;15.94;83.20;101256.81;5111887;28;19920;-55
2021/09/26 02:54:02;;;;;;;14.32;9.30;;;;;;;15.96;83.49;101259.28;5111945;28;20039;-50
2021/09/26 02:56:30;;;;;;;16.38;9.90;;;;;;;15.95;83.07;101255.72;5111830;28;20044;-52
2021/09/26 02:59:00;;;;;;;16.55;9.68;;;;;;;15.92;83.53;101266.47;5108607;28;20043;-54
2021/09/26 03:01:29;;;;;;;14.63;8.80;;;;;;;15.93;83.83;101265.38;5106903;28;20047;-49
2021/09/26 03:04:03;;;;;;;12.65;7.85;;;;;;;15.95;83.54;101274.16;5111531;28;20093;-52
2021/09/26 03:06:31;;;;;;;15.10;9.30;;;;;;;15.99;83.69;101269.69;5111187;28;20054;-53
2021/09/26 03:09:00;;;;;;;15.35;9.75;;;;;;;16.02;83.17;101263.63;5109974;28;20046;-52
2021/09/26 03:11:27;;;;;;;17.17;9.60;;;;;;;16.03;82.89;101262.50;5110187;28;20084;-54
2021/09/26 03:13:55;;;;;;;13.93;8.18;;;;;;;16.02;83.13;101260.88;5110426;28;20496;-51
2021/09/26 03:16:22;;;;;;;17.02;9.95;;;;;;;16.00;83.11;101254.03;5115242;28;20040;-51
2021/09/26 03:18:50;;;;;;;17.45;9.10;;;;;;;15.98;83.29;101246.06;5115462;28;20046;-55
2021/09/26 03:21:17;;;;;;;13.43;8.63;;;;;;;15.96;83.62;101251.84;5103910;28;20047;-56
2021/09/26 03:23:45;;;;;;;12.60;9.02;;;;;;;15.97;83.24;101250.75;5115744;28;20051;-55
2021/09/26 03:26:12;;;;;;;13.63;9.00;;;;;;;15.96;83.11;101251.03;5115550;28;20092;-54
2021/09/26 03:28:40;;;;;;;14.82;9.60;;;;;;;15.96;83.62;101242.81;5115496;28;20032;-54
2021/09/26 03:31:07;;;;;;;17.02;9.75;;;;;;;15.97;83.39;101242.53;5113445;28;20044;-54
2021/09/26 03:33:35;;;;;;;14.60;9.00;;;;;;;16.00;83.60;101252.09;5112842;28;20439;-52
2021/09/26 03:36:03;;;;;;;14.00;9.25;;;;;;;16.04;83.29;101244.06;5115507;28;20043;-54
2021/09/26 03:38:31;;;;;;;16.67;9.40;;;;;;;16.09;83.15;101244.84;5115090;28;20032;-53
2021/09/26 03:40:59;;;;;;;15.57;9.30;;;;;;;16.10;82.88;101240.97;5113815;28;20105;-52
2021/09/26 03:43:26;;;;;;;14.70;9.95;;;;;;;16.08;82.51;101243.19;5105532;28;20387;-54
2021/09/26 03:45:54;;;;;;;13.55;9.38;;;;;;;16.08;82.74;101240.44;5114688;28;20051;-53
2021/09/26 03:48:23;;;;;;;13.18;8.98;;;;;;;16.07;82.74;101238.81;5114353;28;20517;-54
2021/09/26 03:50:51;;;;;;;14.80;9.55;;;;;;;16.07;82.71;101238.00;5115274;28;20044;-50
2021/09/26 03:53:19;;;;;;;15.45;9.50;;;;;;;16.06;82.78;101234.41;5111866;28;20466;-51
2021/09/26 03:55:47;;;;;;;15.80;10.60;;;;;;;16.09;82.31;101231.09;5114954;28;20066;-55
2021/09/26 03:58:14;;;;;;;13.80;9.32;;;;;;;16.08;82.39;101240.44;5115008;28;20047;-55
2021/09/26 04:00:42;;;;;;;15.23;10.05;;;;;;;16.07;82.08;101233.31;5114479;28;20050;-52
2021/09/26 04:03:10;;;;;;;14.43;9.38;;;;;;;16.07;82.23;101238.81;5113151;28;20062;-50
2021/09/26 04:05:37;;;;;;;13.05;9.50;;;;;;;16.07;82.32;101235.25;5113098;28;20055;-52
2021/09/26 04:08:05;;;;;;;15.48;9.55;;;;;;;16.07;82.46;101238.00;5114692;28;20040;-53
2021/09/26 04:10:32;;;;;;;15.32;10.20;;;;;;;16.07;82.28;101235.25;5114709;28;20050;-50
2021/09/26 04:13:00;;;;;;;16.48;10.38;;;;;;;16.07;82.28;101232.50;5111464;28;20075;-53
2021/09/26 04:15:28;;;;;;;16.90;10.10;;;;;;;16.08;82.13;101240.44;5111887;28;20068;-56
2021/09/26 04:17:55;;;;;;;14.88;10.18;;;;;;;16.10;82.55;101232.72;5113814;28;20046;-53
2021/09/26 04:20:23;;;;;;;16.92;9.95;;;;;;;16.09;82.61;101242.09;5114690;28;20031;-53
2021/09/26 04:22:51;;;;;;;14.18;9.90;;;;;;;16.06;82.99;101248.16;5113841;28;20043;-51
2021/09/26 04:25:19;;;;;;;13.95;9.15;;;;;;;16.05;83.22;101252.03;5110276;28;20036;-55
2021/09/26 04:27:46;;;;;;;14.63;9.65;;;;;;;16.05;83.51;101235.53;5114250;28;20093;-52
2021/09/26 04:30:14;;;;;;;15.55;9.90;;;;;;;16.06;83.76;101245.41;5112913;28;20035;-53
2021/09/26 04:32:41;;;;;;;14.35;10.40;;;;;;;16.05;83.75;101235.53;5113933;28;20490;-56
2021/09/26 04:35:09;;;;;;;14.32;9.25;;;;;;;16.07;83.86;101244.31;5108749;28;20040;-54
2021/09/26 04:37:37;;;;;;;15.10;10.02;;;;;;;16.09;84.04;101244.84;5102921;28;20154;-54
2021/09/26 04:40:05;;;;;;;18.50;10.57;;;;;;;16.06;84.22;101242.66;5110464;28;20043;-52
2021/09/26 04:42:33;;;;;;;18.33;10.57;;;;;;;16.04;84.40;101247.63;5113837;28;20498;-54
2021/09/26 04:45:02;;;;;;;18.30;10.27;;;;;;;16.03;84.67;101242.44;5111995;28;20036;-57
2021/09/26 04:47:30;;;;;;;15.13;9.90;;;;;;;16.03;85.15;101247.94;5111578;28;20093;-55
2021/09/26 04:49:57;;;;;;;16.27;10.43;;;;;;;16.00;85.41;101249.34;5113933;28;20547;-56
2021/09/26 04:52:25;;;;;;;17.27;10.13;;;;;;;15.97;86.21;101242.53;5099864;28;20045;-52
2021/09/26 04:54:52;;;;;;;17.35;10.40;;;;;;;16.01;86.23;101245.47;5113764;28;20043;-56
2021/09/26 04:57:20;;;;;;;15.60;10.52;;;;;;;16.05;86.45;101252.03;5110202;28;20040;-56
2021/09/26 04:59:47;;;;;;;17.05;10.73;;;;;;;16.04;86.62;101239.38;5113215;28;20486;-57
2021/09/26 05:02:15;;;;;;;14.48;10.02;;;;;;;16.01;86.88;101242.72;5113475;28;20055;-56
2021/09/26 05:04:43;;;;;;;19.27;10.88;;;;;;;16.00;87.25;101243.84;5113249;28;20039;-56
2021/09/26 05:07:10;;;;;;;18.60;10.20;;;;;;;15.97;88.02;101239.78;5111642;28;20035;-54
2021/09/26 05:09:38;;;;;;;17.15;9.73;;;;;;;15.98;88.16;101241.41;5112614;28;20039;-57
2021/09/26 05:12:06;;;;;;;14.02;9.05;;;;;;;16.01;87.59;101244.66;5113626;28;20477;-54
2021/09/26 05:14:34;;;;;;;19.60;11.55;;;;;;;16.04;88.00;101244.06;5113259;28;20047;-53
2021/09/26 05:17:01;;;;;;;18.52;10.82;;;;;;;16.03;87.98;101236.94;5111224;28;20051;-53
2021/09/26 05:19:29;;;;;;;18.27;10.50;;;;;;;16.04;88.33;101246.81;5111667;28;20051;-53
2021/09/26 05:21:57;;;;;;;20.77;10.52;;;;;;;16.04;88.25;101250.38;5113259;28;20611;-54
2021/09/26 05:24:24;;;;;;;16.08;10.10;;;;;;;16.03;88.50;101248.75;5111918;28;20502;-53
2021/09/26 05:26:52;;;;;;;18.98;10.65;;;;;;;16.01;88.46;101245.47;5108867;28;20051;-55
2021/09/26 05:29:20;;;;;;;17.88;10.27;;;;;;;16.03;88.29;101243.25;5106735;28;20098;-53
2021/09/26 05:31:47;;;;;;;16.80;10.77;;;;;;;16.04;88.95;101249.56;5108728;28;20115;-50
2021/09/26 05:34:16;;;;;;;20.35;11.25;;;;;;;16.06;88.48;101244.59;5102221;28;20036;-56
2021/09/26 05:36:44;;;;;;;16.73;10.63;;;;;;;16.06;88.73;101247.34;5114925;28;20090;-53
2021/09/26 05:39:11;;;;;;;16.90;10.98;;;;;;;16.06;88.46;101248.16;5097391;28;20114;-53
2021/09/26 05:41:39;;;;;;;17.55;10.95;;;;;;;16.07;88.64;101247.06;5097100;28;20093;-54
2021/09/26 05:44:07;;;;;;;18.15;10.32;;;;;;;16.07;88.83;101247.06;5096349;28;20040;-53
2021/09/26 05:46:35;;;;;;;17.92;10.77;;;;;;;16.07;88.91;101247.06;5096260;28;20487;-53
2021/09/26 05:49:02;;;;;;;15.25;10.43;;;;;;;16.08;88.41;101256.94;5106453;28;20058;-52
2021/09/26 05:51:30;;;;;;;14.85;9.35;;;;;;;16.10;88.50;101254.72;5096555;28;20040;-54
2021/09/26 05:53:58;;;;;;;18.13;10.63;;;;;;;16.10;88.27;101251.97;5098180;28;20501;-56
2021/09/26 05:56:25;;;;;;;19.55;11.02;;;;;;;16.07;88.45;101249.81;5096377;28;20055;-51
2021/09/26 05:58:53;;;;;;;15.57;10.23;;;;;;;16.05;88.79;101245.72;5097781;28;20498;-53
2021/09/26 06:01:21;;;;;;;15.60;10.68;;;;;;;16.05;88.77;101243.78;5110163;28;20051;-53
2021/09/26 06:03:49;;;;;;;16.65;10.73;;;;;;;16.08;88.68;101243.19;5112722;28;20036;-54
2021/09/26 06:06:17;;;;;;;15.38;11.20;;;;;;;16.10;89.26;101243.72;5112002;28;20126;-53
2021/09/26 06:08:44;;;;;;;15.40;10.57;;;;;;;16.10;89.17;101240.97;5110529;28;20104;-54
2021/09/26 06:11:12;;;;;;;19.52;10.93;;;;;;;16.11;89.25;101250.84;5110413;28;20051;-55
2021/09/26 06:13:40;;;;;;;17.90;10.60;;;;;;;16.13;88.69;101236.81;5112015;28;20127;-56
2021/09/26 06:16:07;;;;;;;13.15;10.25;;;;;;;16.12;88.86;101247.00;5111825;28;20043;-54
2021/09/26 06:18:35;;;;;;;17.60;10.07;;;;;;;16.13;89.26;101259.63;5110426;28;20047;-54
2021/09/26 06:21:02;;;;;;;17.50;11.80;;;;;;;16.14;88.76;101253.03;5112133;28;20043;-51
2021/09/26 06:23:30;;;;;;;15.50;10.48;;;;;;;16.12;89.19;101254.44;5106400;28;20052;-54
2021/09/26 06:26:00;;;;;;;14.27;9.85;;;;;;;16.11;89.40;101267.34;5111978;28;20445;-55
2021/09/26 06:28:28;;;;;;;16.10;10.70;;;;;;;16.09;89.05;101258.59;5107457;28;20044;-55
2021/09/26 06:31:00;;;;;;;17.40;10.30;;;;;;;16.10;89.52;101265.72;5107315;28;20486;-55
2021/09/26 06:33:27;;;;;;;14.35;10.38;;;;;;;16.11;89.67;101269.28;5104281;28;20478;-57
2021/09/26 06:35:55;;;;;;;15.50;10.60;;;;;;;16.13;89.80;101269.81;5110758;28;20054;-56
2021/09/26 06:38:23;;;;;;;13.93;10.27;;;;;;;16.13;89.89;101265.13;5109551;28;20486;-57
2021/09/26 06:40:50;;;;;;;20.67;10.52;;;;;;;16.15;89.71;101254.66;5109216;28;20043;-58
2021/09/26 06:43:18;;;;;;;15.50;10.68;;;;;;;16.13;89.89;101259.63;5105418;28;20052;-58
2021/09/26 06:45:45;;;;;;;14.88;9.25;;;;;;;16.14;90.30;101260.47;5106256;28;20048;-54
2021/09/26 06:48:13;;;;;;;14.27;10.27;;;;;;;16.13;89.98;101269.81;5097348;28;20097;-55
2021/09/26 06:50:41;;;;;;;14.95;9.60;;;;;;;16.16;90.46;101269.19;5102012;28;20044;-51
2021/09/26 06:53:08;;;;;;;19.73;10.45;;;;;;;16.15;90.57;101271.13;5098503;28;20044;-50
2021/09/26 06:55:36;;;;;;;14.52;10.20;;;;;;;16.15;90.74;101271.13;5111554;28;20038;-51
2021/09/26 06:58:03;;;;;;;18.83;10.88;;;;;;;16.16;90.75;101270.03;5104232;28;20133;-51
2021/09/26 07:00:31;;;;;;;13.32;9.77;;;;;;;16.17;90.64;101268.91;5106463;28;20050;-51
2021/09/26 07:02:59;;;;;;;16.55;9.48;;;;;;;16.19;91.12;101274.94;5115794;28;20035;-51
2021/09/26 07:05:26;;;;;;;13.60;9.90;;;;;;;16.19;91.23;101280.44;5105882;28;20083;-51
2021/09/26 07:07:54;;;;;;;15.60;10.32;;;;;;;16.23;90.86;101280.66;5112921;28;20042;-49
2021/09/26 07:10:22;;;;;;;18.75;10.50;;;;;;;16.24;91.12;101282.31;5111585;28;20057;-49
2021/09/26 07:12:49;;;;;;;16.85;10.80;;;;;;;16.24;91.46;101287.81;5103987;28;20048;-52
2021/09/26 07:15:17;;;;;;;15.27;10.75;;;;;;;16.27;91.68;101298.22;5097347;28;20393;-50
2021/09/26 07:17:44;;;;;;;15.95;11.32;;;;;;;16.29;91.58;101295.19;5099307;28;20409;-50
2021/09/26 07:20:12;;;;;;;15.27;10.82;;;;;;;16.30;92.04;101297.63;5102115;28;20048;-52
2021/09/26 07:22:40;;;;;;;16.00;11.23;;;;;;;16.31;91.96;101292.97;5098950;28;20036;-50
2021/09/26 07:25:09;;;;;;;15.30;10.93;;;;;;;16.35;92.66;101304.97;5102595;28;20486;-51
2021/09/26 07:27:37;;;;;;;15.75;10.73;;;;;;;16.37;92.62;101300.00;5100828;28;20032;-52
2021/09/26 07:30:05;;;;;;;18.08;11.82;;;;;;;16.39;92.43;101301.34;5099253;28;20032;-51
2021/09/26 07:32:32;;;;;;;17.65;10.60;;;;;;;16.41;93.01;101298.31;5105629;28;20043;-48
2021/09/26 07:35:00;;;;;;;21.08;11.50;;;;;;;16.43;93.20;101296.09;5100678;28;20048;-50
2021/09/26 07:37:27;;;;;;;20.15;10.90;;;;;;;16.45;93.10;101304.88;5105672;28;20078;-50
2021/09/26 07:39:55;;;;;;;17.27;11.15;;;;;;;16.49;93.36;101305.09;5098910;28;20066;-51
2021/09/26 07:42:22;;;;;;;23.15;10.98;;;;;;;16.52;92.74;101308.03;5098845;28;20040;-51
2021/09/26 07:44:50;;;;;;;22.58;10.95;;;;;;;16.57;92.12;101320.91;5098178;28;20449;-51
2021/09/26 07:47:18;;;;;;;29.05;12.32;;;;;;;16.63;90.63;101327.19;5101968;28;20494;-50
2021/09/26 07:49:45;;;;;;;28.05;12.05;;;;;;;16.68;90.70;101324.34;5106006;28;20036;-51
2021/09/26 07:52:13;;;;;;;15.20;10.40;;;;;;;16.71;91.55;101330.06;5101017;28;20043;-52
2021/09/26 07:54:40;;;;;;;23.95;10.25;;;;;;;16.76;90.57;101332.78;5097490;28;20093;-51
2021/09/26 07:57:08;;;;;;;19.30;10.30;;;;;;;16.83;89.91;101326.91;5100613;28;20096;-48
2021/09/26 07:59:36;;;;;;;20.38;10.48;;;;;;;16.83;89.99;101315.91;5104030;28;20047;-51
2021/09/26 08:02:03;;;;;;;20.25;10.20;;;;;;;16.87;89.43;101307.88;5114642;28;20050;-50
2021/09/26 08:04:31;;;;;;;20.85;10.10;;;;;;;16.89;88.76;101295.44;5114606;28;20073;-50
2021/09/26 08:06:59;;;;;;;18.60;8.68;;;;;;;16.93;89.67;101299.25;5114577;28;20054;-49
2021/09/26 08:09:26;;;;;;;19.83;9.27;;;;;;;16.97;88.72;101293.94;5112585;28;20044;-51
2021/09/26 08:11:54;;;;;;;18.23;9.48;;;;;;;16.99;89.29;101309.03;5114539;28;20044;-48
2021/09/26 08:14:21;;;;;;;16.17;10.05;;;;;;;17.07;89.63;101309.47;5114451;28;20122;-50
2021/09/26 08:16:49;;;;;;;22.30;9.70;;;;;;;17.10;88.25;101317.13;5114418;28;20421;-51
2021/09/26 08:19:17;;;;;;;15.57;8.05;;;;;;;17.18;87.86;101319.22;5112865;28;20110;-50
2021/09/26 08:21:44;;;;;;;19.65;9.80;;;;;;;17.20;88.48;101320.56;5114178;28;20039;-50
2021/09/26 08:24:12;;;;;;;17.20;9.57;;;;;;;17.22;87.69;101314.72;5114268;28;20422;-51
2021/09/26 08:26:40;;;;;;;16.83;8.82;;;;;;;17.22;89.02;101328.50;5114253;28;20032;-50
2021/09/26 08:29:08;;;;;;;17.17;10.32;;;;;;;17.30;90.61;101324.28;5114213;28;20046;-51
2021/09/26 08:31:35;;;;;;;15.75;10.25;;;;;;;17.30;90.08;101325.06;5098585;28;20525;-53
2021/09/26 08:34:03;;;;;;;16.25;9.75;;;;;;;17.30;92.49;101330.59;5114113;28;20039;-48
2021/09/26 08:36:30;;;;;;;16.55;10.00;;;;;;;17.32;91.44;101338.53;5113926;28;20494;-49
2021/09/26 08:38:58;;;;;;;16.80;10.55;;;;;;;17.34;93.09;101339.91;5113841;28;20046;-47
2021/09/26 08:41:26;;;;;;;17.05;10.15;;;;;;;17.37;90.99;101346.75;5112318;28;20051;-48
2021/09/26 08:43:54;;;;;;;14.15;6.88;;;;;;;17.39;87.96;101342.56;5113968;28;20093;-49
2021/09/26 08:46:22;;;;;;;17.48;9.13;;;;;;;17.50;89.62;101339.63;5114057;28;20401;-49
2021/09/26 08:48:51;;;;;;;15.85;8.90;;;;;;;17.49;90.35;101340.75;5112241;28;20036;-51
2021/09/26 08:51:19;;;;;;;17.23;7.05;;;;;;;17.54;86.23;101347.00;5113665;27;20044;-51
2021/09/26 08:53:48;;;;;;;13.60;7.28;;;;;;;17.58;88.06;101347.19;5113492;27;20035;-49
2021/09/26 08:56:22;;;;;;;17.00;11.25;;;;;;;17.59;nan;101344.13;5095422;28;20509;-50
2021/09/26 08:58:50;;;;;;;16.10;8.35;;;;;;;17.64;88.20;101355.06;5113417;28;20063;-48
2021/09/26 09:01:18;;;;;;;14.90;8.45;;;;;;;17.75;87.78;101347.44;5111589;28;20046;-50
2021/09/26 09:03:47;;;;;;;15.02;10.90;;;;;;;17.75;92.65;101344.69;5113411;28;20074;-50
2021/09/26 09:06:16;;;;;;;16.77;11.20;;;;;;;17.76;89.38;101349.06;5113116;28;20611;-50
2021/09/26 09:08:45;;;;;;;15.07;9.38;;;;;;;17.80;87.53;101352.91;5113235;28;20032;-50
2021/09/26 09:11:21;;;;;;;18.75;13.80;;;;;;;17.81;91.67;101351.75;5109717;28;20039;-52
2021/09/26 09:13:59;;;;;;;21.95;13.77;;;;;;;17.82;93.32;101353.41;5113649;28;20031;-50
2021/09/26 09:16:32;;;;;;;17.15;13.20;;;;;;;17.82;93.72;101347.06;5112981;28;20069;-50
2021/09/26 09:19:00;;;;;;;14.70;9.23;;;;;;;17.81;91.30;101351.75;5113310;28;20492;-49
2021/09/26 09:21:33;;;;;;;12.35;6.65;;;;;;;17.81;87.39;101349.00;5110791;28;20044;-51
2021/09/26 09:24:23;;;;;;;13.20;8.63;;;;;;;17.85;88.41;101355.56;5113072;28;20078;-50
2021/09/26 09:26:51;;;;;;;13.32;7.72;;;;;;;17.87;87.79;101360.75;5111785;28;20078;-49
2021/09/26 09:29:20;;;;;;;16.48;11.07;;;;;;;17.90;88.25;101370.38;5113134;28;20509;-51
2021/09/26 09:31:49;;;;;;;14.98;10.50;;;;;;;17.90;87.62;101362.91;5106710;28;20044;-50
2021/09/26 09:34:37;;;;;;;12.57;7.70;;;;;;;17.92;88.28;101371.69;5101945;28;20051;-50
2021/09/26 09:37:16;;;;;;;17.55;13.05;;;;;;;17.92;89.58;101368.09;5112485;28;20043;-50
2021/09/26 09:40:04;;;;;;;16.55;11.63;;;;;;;17.93;88.80;101367.00;5113165;28;20055;-50
2021/09/26 09:42:38;;;;;;;18.85;10.30;;;;;;;17.96;88.89;101366.38;5099864;28;20043;-50
2021/09/26 09:45:22;;;;;;;18.20;13.77;;;;;;;18.00;90.86;101364.66;5112564;27;20042;-49
2021/09/26 09:48:10;;;;;;;12.23;8.45;;;;;;;18.00;88.38;101367.41;5112843;28;20050;-49
2021/09/26 09:50:43;;;;;;;13.88;10.00;;;;;;;18.07;89.04;101368.66;5111957;28;20164;-48
2021/09/26 09:53:31;;;;;;;12.98;7.30;;;;;;;18.14;86.71;101376.53;5111000;28;20521;-50
2021/09/26 09:56:23;;;;;;;19.55;14.75;;;;;;;18.24;88.19;101369.97;5099662;28;20043;-50
2021/09/26 09:58:56;;;;;;;15.20;10.43;;;;;;;18.28;88.56;101369.06;5112439;28;20066;-49
2021/09/26 10:01:35;;;;;;;12.98;7.28;;;;;;;18.36;84.50;101373.03;5098176;28;20031;-49
2021/09/26 10:04:04;;;;;;;14.85;8.50;;;;;;;18.38;85.20;101375.50;5110440;28;20519;-50
2021/09/26 10:06:47;;;;;;;12.32;8.52;;;;;;;18.33;85.75;101383.84;5097927;28;20101;-49
2021/09/26 10:09:26;;;;;;;11.90;6.70;;;;;;;18.37;84.31;101384.88;5112147;28;20040;-50
2021/09/26 10:12:02;;;;;;;14.05;10.43;;;;;;;18.41;85.79;101372.13;5112303;28;20517;-48
2021/09/26 10:14:37;;;;;;;13.80;9.73;;;;;;;18.39;85.96;101377.94;5110524;28;20040;-49
2021/09/26 10:17:06;;;;;;;13.77;10.40;;;;;;;18.37;85.81;101379.38;5111863;28;20469;-50
2021/09/26 10:19:35;;;;;;;15.02;11.02;;;;;;;18.39;85.29;101371.59;5111570;28;20048;-50
2021/09/26 10:22:04;;;;;;;12.48;9.07;;;;;;;18.37;85.86;101384.88;5111330;28;20043;-50
2021/09/26 10:24:33;;;;;;;12.20;8.57;;;;;;;18.41;85.22;101380.41;5111670;28;20494;-51
2021/09/26 10:27:10;;;;;;;15.30;11.02;;;;;;;18.46;85.77;101374.78;5111352;28;20047;-51
2021/09/26 10:29:37;;;;;;;;;;;;;;;18.51;83.28;101381.00;5112278;28;20051;-49
2021/09/26 10:32:07;;;;;;;13.65;9.40;;;;;;;18.56;84.26;101371.78;5111649;28;19926;-50
2021/09/26 10:34:36;;;;;;;16.77;12.60;;;;;;;18.58;86.42;101371.50;5111617;27;20051;-47
2021/09/26 10:37:07;;;;;;;10.63;6.55;;;;;;;18.58;85.31;101380.59;5110357;28;20371;-48
2021/09/26 10:39:34;;;;;;;13.00;8.70;;;;;;;18.66;84.46;101377.09;5111758;28;20057;-49
2021/09/26 10:42:06;;;;;;;16.15;11.43;;;;;;;18.72;85.58;101381.38;5110746;28;20048;-50
2021/09/26 10:44:46;;;;;;;17.33;12.40;;;;;;;18.79;86.70;101386.53;5112201;28;20439;-48
2021/09/26 10:47:22;;;;;;;13.27;9.75;;;;;;;18.80;87.15;101381.81;5109795;28;20042;-49
2021/09/26 10:49:51;;;;;;;10.25;6.95;;;;;;;18.83;84.23;101383.94;5111944;28;20048;-50
2021/09/26 10:52:30;;;;;;;17.42;11.48;;;;;;;18.90;86.13;101392.63;5111663;28;20035;-51
2021/09/26 10:55:18;;;;;;;13.63;10.40;;;;;;;18.96;84.19;101390.56;5112062;28;20477;-52
2021/09/26 10:57:46;;;;;;;16.25;11.05;;;;;;;18.99;85.29;101381.66;5100541;28;20047;-50
2021/09/26 11:00:30;;;;;;;17.45;12.38;;;;;;;19.07;82.77;101384.50;5110569;28;20402;-48
2021/09/26 11:03:17;;;;;;;12.80;9.95;;;;;;;19.15;83.25;101386.53;5109781;28;20044;-51
2021/09/26 11:05:52;;;;;;;10.13;6.68;;;;;;;19.19;80.83;101383.94;5111834;28;20070;-51
2021/09/26 11:08:25;;;;;;;9.55;6.28;;;;;;;19.22;82.37;101386.09;5100923;28;20040;-55
2021/09/26 11:10:57;;;;;;;13.88;9.57;;;;;;;19.22;84.13;101385.25;5114304;28;20122;-53
2021/09/26 11:13:29;;;;;;;10.55;7.50;;;;;;;19.32;81.18;101382.28;5107689;28;20040;-50
2021/09/26 11:16:17;;;;;;;10.75;7.35;;;;;;;19.35;80.25;101381.63;5106312;28;20036;-52
2021/09/26 11:18:58;;;;;;;16.70;10.68;;;;;;;19.38;80.36;101381.00;5097168;28;20050;-53
2021/09/26 11:21:38;;;;;;;15.05;12.45;;;;;;;19.39;83.55;101382.66;5111498;28;20042;-55
2021/09/26 11:24:13;;;;;;;15.95;9.48;;;;;;;19.40;82.90;101389.78;5111428;28;20154;-50
2021/09/26 11:27:03;;;;;;;16.63;11.63;;;;;;;19.40;82.97;101384.25;5111737;28;20058;-49
2021/09/26 11:29:43;;;;;;;46.83;26.42;;;;;;;19.46;79.54;101388.56;5102776;28;20044;-50